N124TL KPRC-KSEZ
Flight info
| Callsign | N124TL |
|---|---|
| Flight time | 0h 19m |
| Altitude | 5500 |
| Route | VFR WEST HUGGING THE VERDE RIVER |
| Aircraft | BE58/L-VGD/C |
Departure
| Time | 2026-04-19 12:09 |
|---|---|
| Airport | Prescott Regional Airport - Ernest A. Love Field (KPRC) |
Arrival
| Time | 2026-04-19 12:28 |
|---|---|
| Airport | Sedona Airport (KSEZ) |
| Time | Latitude | Longitude | Altitude | Speed | Heading |
|---|---|---|---|---|---|
| 2026-04-19 11:48 | 34.65237 | -112.42428 | 5006 ft | 0 kts | 309° |
| 2026-04-19 11:49 | 34.65237 | -112.42427 | 5006 ft | 0 kts | 309° |
| 2026-04-19 12:06 | 34.65241 | -112.42433 | 5006 ft | 0 kts | 309° |
| 2026-04-19 12:06 | 34.65282 | -112.42403 | 5004 ft | 19 kts | 45° |
| 2026-04-19 12:06 | 34.65409 | -112.42265 | 4996 ft | 18 kts | 39° |
| 2026-04-19 12:07 | 34.65418 | -112.42162 | 4993 ft | 14 kts | 40° |
| 2026-04-19 12:07 | 34.65536 | -112.42034 | 4987 ft | 30 kts | 40° |
| 2026-04-19 12:07 | 34.65707 | -112.41854 | 4977 ft | 33 kts | 41° |
| 2026-04-19 12:07 | 34.65886 | -112.41663 | 4969 ft | 34 kts | 41° |
| 2026-04-19 12:08 | 34.66070 | -112.41468 | 4960 ft | 35 kts | 41° |
| 2026-04-19 12:08 | 34.66236 | -112.41293 | 4953 ft | 27 kts | 41° |
| 2026-04-19 12:08 | 34.66239 | -112.41171 | 4951 ft | 13 kts | 133° |
| 2026-04-19 12:08 | 34.66179 | -112.41170 | 4952 ft | 9 kts | 219° |
| 2026-04-19 12:09 | 34.65881 | -112.41486 | 4966 ft | 93 kts | 220° |
| 2026-04-19 12:09 | 34.65325 | -112.42094 | 5157 ft | 113 kts | 223° |
| 2026-04-19 12:09 | 34.64732 | -112.42790 | 5469 ft | 123 kts | 224° |
| 2026-04-19 12:09 | 34.64049 | -112.43455 | 5794 ft | 127 kts | 196° |
| 2026-04-19 12:10 | 34.63256 | -112.43082 | 6025 ft | 136 kts | 134° |
| 2026-04-19 12:10 | 34.62633 | -112.42174 | 6106 ft | 144 kts | 129° |
| 2026-04-19 12:10 | 34.62497 | -112.40992 | 6177 ft | 154 kts | 68° |
| 2026-04-19 12:10 | 34.63293 | -112.40068 | 6298 ft | 156 kts | 37° |
| 2026-04-19 12:11 | 34.64237 | -112.39323 | 6106 ft | 173 kts | 33° |
| 2026-04-19 12:11 | 34.65296 | -112.38580 | 6120 ft | 169 kts | 31° |
| 2026-04-19 12:11 | 34.66307 | -112.37924 | 6239 ft | 162 kts | 30° |
| 2026-04-19 12:11 | 34.67297 | -112.37261 | 6282 ft | 160 kts | 31° |
| 2026-04-19 12:12 | 34.68338 | -112.36956 | 6403 ft | 153 kts | 345° |
| 2026-04-19 12:12 | 34.69251 | -112.37715 | 6153 ft | 169 kts | 317° |
| 2026-04-19 12:12 | 34.70264 | -112.38235 | 6371 ft | 155 kts | 351° |
| 2026-04-19 12:12 | 34.71356 | -112.38444 | 6320 ft | 159 kts | 350° |
| 2026-04-19 12:13 | 34.72489 | -112.38683 | 6343 ft | 165 kts | 350° |
| 2026-04-19 12:13 | 34.73633 | -112.38929 | 6361 ft | 169 kts | 350° |
| 2026-04-19 12:13 | 34.74813 | -112.39184 | 6370 ft | 173 kts | 350° |
| 2026-04-19 12:13 | 34.76005 | -112.39444 | 6386 ft | 176 kts | 350° |
| 2026-04-19 12:14 | 34.77228 | -112.39714 | 6398 ft | 178 kts | 350° |
| 2026-04-19 12:14 | 34.78472 | -112.39988 | 6398 ft | 180 kts | 350° |
| 2026-04-19 12:14 | 34.79726 | -112.40263 | 6399 ft | 181 kts | 350° |
| 2026-04-19 12:14 | 34.80962 | -112.40531 | 6398 ft | 182 kts | 350° |
| 2026-04-19 12:15 | 34.82214 | -112.40808 | 6410 ft | 181 kts | 350° |
| 2026-04-19 12:15 | 34.83464 | -112.41096 | 6415 ft | 181 kts | 350° |
| 2026-04-19 12:15 | 34.84710 | -112.41385 | 6414 ft | 181 kts | 350° |
| 2026-04-19 12:15 | 34.85958 | -112.41682 | 6417 ft | 181 kts | 351° |
| 2026-04-19 12:16 | 34.87200 | -112.41692 | 6416 ft | 177 kts | 22° |
| 2026-04-19 12:16 | 34.88081 | -112.40727 | 6422 ft | 171 kts | 65° |
| 2026-04-19 12:16 | 34.88221 | -112.39352 | 6423 ft | 168 kts | 104° |
| 2026-04-19 12:16 | 34.87840 | -112.38005 | 6420 ft | 168 kts | 105° |
| 2026-04-19 12:17 | 34.87906 | -112.36594 | 6421 ft | 167 kts | 78° |
| 2026-04-19 12:17 | 34.88308 | -112.35249 | 6424 ft | 168 kts | 69° |
| 2026-04-19 12:17 | 34.88758 | -112.33931 | 6430 ft | 168 kts | 69° |
| 2026-04-19 12:17 | 34.89208 | -112.32624 | 6426 ft | 167 kts | 69° |
| 2026-04-19 12:18 | 34.89663 | -112.31318 | 6415 ft | 168 kts | 69° |
| 2026-04-19 12:18 | 34.90119 | -112.30005 | 6421 ft | 168 kts | 69° |
| 2026-04-19 12:18 | 34.90401 | -112.28636 | 6424 ft | 166 kts | 89° |
| 2026-04-19 12:18 | 34.90378 | -112.27216 | 6421 ft | 166 kts | 93° |
| 2026-04-19 12:19 | 34.90332 | -112.25818 | 6420 ft | 167 kts | 93° |
| 2026-04-19 12:19 | 34.90277 | -112.24400 | 6425 ft | 167 kts | 93° |
| 2026-04-19 12:19 | 34.90217 | -112.22983 | 6432 ft | 167 kts | 93° |
| 2026-04-19 12:19 | 34.90155 | -112.21564 | 6430 ft | 168 kts | 93° |
| 2026-04-19 12:20 | 34.90094 | -112.20139 | 6425 ft | 168 kts | 93° |
| 2026-04-19 12:20 | 34.90033 | -112.18714 | 6417 ft | 167 kts | 93° |
| 2026-04-19 12:20 | 34.89752 | -112.17364 | 6416 ft | 167 kts | 112° |
| 2026-04-19 12:20 | 34.89262 | -112.16058 | 6411 ft | 167 kts | 114° |
| 2026-04-19 12:21 | 34.88775 | -112.14780 | 6425 ft | 167 kts | 114° |
| 2026-04-19 12:21 | 34.88285 | -112.13483 | 6417 ft | 167 kts | 114° |
| 2026-04-19 12:21 | 34.87797 | -112.12187 | 6418 ft | 168 kts | 114° |
| 2026-04-19 12:21 | 34.87313 | -112.10902 | 6423 ft | 167 kts | 114° |
| 2026-04-19 12:22 | 34.86819 | -112.09602 | 6419 ft | 168 kts | 114° |
| 2026-04-19 12:22 | 34.86324 | -112.08301 | 6411 ft | 169 kts | 114° |
| 2026-04-19 12:22 | 34.85894 | -112.06963 | 6406 ft | 167 kts | 99° |
| 2026-04-19 12:22 | 34.85778 | -112.05557 | 6407 ft | 167 kts | 92° |
| 2026-04-19 12:23 | 34.85715 | -112.04144 | 6405 ft | 167 kts | 91° |
| 2026-04-19 12:23 | 34.85662 | -112.02731 | 6398 ft | 167 kts | 90° |
| 2026-04-19 12:23 | 34.85614 | -112.01319 | 6394 ft | 166 kts | 90° |
| 2026-04-19 12:23 | 34.85567 | -111.99905 | 6388 ft | 166 kts | 90° |
| 2026-04-19 12:24 | 34.85521 | -111.98518 | 6388 ft | 166 kts | 90° |
| 2026-04-19 12:24 | 34.85474 | -111.97094 | 6393 ft | 166 kts | 90° |
| 2026-04-19 12:24 | 34.85428 | -111.95703 | 6401 ft | 166 kts | 90° |
| 2026-04-19 12:24 | 34.85382 | -111.94295 | 6399 ft | 166 kts | 90° |
| 2026-04-19 12:25 | 34.85335 | -111.92893 | 6400 ft | 166 kts | 90° |
| 2026-04-19 12:25 | 34.85288 | -111.91476 | 6399 ft | 166 kts | 90° |
| 2026-04-19 12:25 | 34.85171 | -111.90054 | 6183 ft | 176 kts | 105° |
| 2026-04-19 12:25 | 34.84421 | -111.88819 | 5921 ft | 185 kts | 130° |
| 2026-04-19 12:26 | 34.83583 | -111.87672 | 5781 ft | 175 kts | 121° |
| 2026-04-19 12:26 | 34.83033 | -111.86398 | 5732 ft | 164 kts | 113° |
| 2026-04-19 12:26 | 34.82409 | -111.85258 | 5701 ft | 162 kts | 121° |
| 2026-04-19 12:26 | 34.81811 | -111.84103 | 5658 ft | 153 kts | 104° |
| 2026-04-19 12:27 | 34.81836 | -111.82895 | 5651 ft | 140 kts | 67° |
| 2026-04-19 12:27 | 34.82270 | -111.81809 | 5404 ft | 144 kts | 50° |
| 2026-04-19 12:27 | 34.82990 | -111.81077 | 5207 ft | 121 kts | 37° |
| 2026-04-19 12:27 | 34.83556 | -111.80464 | 5027 ft | 99 kts | 46° |
| 2026-04-19 12:28 | 34.84425 | -111.79382 | 4780 ft | 78 kts | 44° |
| 2026-04-19 12:28 | 34.84754 | -111.78980 | 4778 ft | 53 kts | 46° |
| 2026-04-19 12:28 | 34.84898 | -111.78892 | 4785 ft | 20 kts | 318° |
| 2026-04-19 12:29 | 34.84945 | -111.78937 | 4785 ft | 0 kts | 315° |